Bei Facebook empfehlenBei Twitter postenGoogle plusPinterest

Das Wetter im Erzgebirge am 10.05.2016

Wetter und Klima am 10.05.2016 Holzhau im Erzgebirge (630m ü.NN)
Letzte gemessene Temperatur und Uhrzeit der Messung23:45:00 Uhr8.20 °C
Temperatur (Maximum / Höchstwert) und Uhrzeit der Messung16:30:00 Uhr20.90 °C
Temperatur (Minimum / Tiefstwert) und Uhrzeit der Messung00:45:006.80 °C
Errechneter Absolutwert der Temperaturschwankungen zwischen Tmin und Tmax des Tages14.10 K
Errechnete Tagesmitteltemperatur14.21354 °C
Gesamt - Niederschlag des Tages (in flüssiger Form)0.00 Liter / m²
Luftdruck (Maximum / Höchstwert) und Zeitpunkt der Messung00:00:00 Uhr1014.70 hPa
Luftdruck (Minimum / Tiefstwert) und Zeitpunkt der Messung23:45:00 Uhr1009.50 hPa
Errechneter Absolutwert der Luftdruckschwankungen des Tages5.20 hPa
Höchste gemessene Windgeschwindigkeit und Uhrzeit der Messung23:45:00 Uhr0.00 km/h
Errechnete Windhäufigkeit in Relation zu den Messwerten des Tages0.00000 %
Niedrigste Windkühle (Windchill) und Zeitpunkt der Messung00:45:00 Uhr6.80 °C
Taupunkt (Maximum / Höchstwert) und Uhrzeit der Messung11:30:00 Uhr10.70 °C
Taupunkt (Minimum / Tiefstwert) und Uhrzeit der Messung00:15:004.00 °C
Anzahl der automatisch eingelesenen Messwerte 96

Detaillierte Wetter- und Klima- Messwerte für den 10.05.2016 in Holzhau im Erzgebirge (630m ü.NN)
ZeitTemperaturLuftdruckRel. LuftfeuchteWindWindrichtungWindchillTaupunktNiederschlag l/m²
23:45:008.20 °C1009.50 hPa83.00 %5.50 °C 
23:30:008.70 °C1009.80 hPa82.00 %5.80 °C 
23:15:009.00 °C1010.00 hPa82.00 %6.10 °C 
23:00:008.80 °C1009.90 hPa81.00 %5.70 °C 
22:45:009.30 °C1009.90 hPa80.00 %6.00 °C 
22:30:009.30 °C1010.10 hPa80.00 %6.00 °C 
22:15:009.40 °C1010.00 hPa79.00 %5.90 °C 
22:00:009.60 °C1010.20 hPa78.00 %6.00 °C 
21:45:0010.00 °C1010.30 hPa76.00 %6.00 °C 
21:30:0010.30 °C1010.20 hPa75.00 %6.10 °C 
21:15:0010.80 °C1010.10 hPa74.00 %6.40 °C 
21:00:0011.50 °C1010.20 hPa72.00 %6.60 °C 
20:45:0012.10 °C1010.10 hPa71.00 %7.00 °C 
20:30:0012.60 °C1009.90 hPa69.00 %7.10 °C 
20:15:0013.10 °C1010.20 hPa67.00 %7.10 °C 
20:00:0013.50 °C1009.90 hPa66.00 %7.30 °C 
19:45:0014.30 °C1009.90 hPa63.00 %7.40 °C 
19:30:0015.30 °C1009.80 hPa60.00 %7.60 °C 
19:15:0016.40 °C1010.00 hPa57.00 %7.90 °C 
19:00:0017.30 °C1009.90 hPa55.00 %8.20 °C 
18:45:0018.10 °C1009.90 hPa55.00 %8.90 °C 
18:30:0018.50 °C1009.80 hPa53.00 %8.70 °C 
18:15:0018.80 °C1009.90 hPa53.00 %9.00 °C 
18:00:0019.10 °C1010.10 hPa51.00 %8.70 °C 
17:45:0019.30 °C1010.20 hPa52.00 %9.20 °C 
17:30:0019.30 °C1010.20 hPa50.00 %8.60 °C 
17:15:0020.30 °C1010.30 hPa50.00 %9.50 °C 
17:00:0020.80 °C1010.20 hPa48.00 %9.40 °C 
16:45:0020.80 °C1010.30 hPa48.00 %9.40 °C 
16:30:0020.90 °C1010.50 hPa48.00 %9.50 °C 
16:15:0020.80 °C1010.40 hPa49.00 %9.70 °C 
16:00:0020.30 °C1010.50 hPa49.00 %9.20 °C 
15:45:0020.50 °C1010.70 hPa50.00 %9.70 °C 
15:30:0020.90 °C1010.70 hPa51.00 %10.40 °C 
15:15:0020.30 °C1010.90 hPa50.00 %9.50 °C 
15:00:0020.60 °C1010.80 hPa49.00 %9.50 °C 
14:45:0020.30 °C1010.90 hPa51.00 %9.80 °C 
14:30:0020.20 °C1011.20 hPa51.00 %9.70 °C 
14:15:0019.70 °C1010.90 hPa51.00 %9.30 °C 
14:00:0019.90 °C1010.90 hPa51.00 %9.50 °C 
13:45:0019.90 °C1011.10 hPa52.00 %9.80 °C 
13:30:0019.80 °C1011.30 hPa51.00 %9.40 °C 
13:15:0020.30 °C1011.40 hPa52.00 %10.10 °C 
13:00:0019.90 °C1011.40 hPa55.00 %10.60 °C 
12:45:0019.80 °C1011.60 hPa53.00 %10.00 °C 
12:30:0019.40 °C1011.50 hPa55.00 %10.10 °C 
12:15:0019.10 °C1011.50 hPa54.00 %9.60 °C 
12:00:0019.10 °C1011.60 hPa54.00 %9.60 °C 
11:45:0019.30 °C1011.80 hPa55.00 %10.00 °C 
11:30:0019.40 °C1011.80 hPa57.00 %10.70 °C 
11:15:0018.60 °C1011.90 hPa59.00 %10.40 °C 
11:00:0018.20 °C1012.00 hPa59.00 %10.10 °C 
10:45:0017.90 °C1012.10 hPa61.00 %10.30 °C 
10:30:0017.60 °C1012.00 hPa62.00 %10.20 °C 
10:15:0017.10 °C1012.10 hPa63.00 %10.00 °C 
10:00:0017.00 °C1012.10 hPa65.00 %10.40 °C 
09:45:0016.70 °C1012.10 hPa66.00 %10.30 °C 
09:30:0016.40 °C1012.20 hPa66.00 %10.00 °C 
09:15:0016.30 °C1012.30 hPa67.00 %10.20 °C 
09:00:0015.60 °C1012.10 hPa68.00 %9.70 °C 
08:45:0015.10 °C1012.10 hPa69.00 %9.50 °C 
08:30:0014.60 °C1012.20 hPa69.00 %9.00 °C 
08:15:0014.40 °C1012.20 hPa69.00 %8.80 °C 
08:00:0014.30 °C1012.30 hPa69.00 %8.70 °C 
07:45:0014.20 °C1012.10 hPa69.00 %8.60 °C 
07:30:0014.60 °C1012.30 hPa70.00 %9.20 °C 
07:15:0014.50 °C1012.20 hPa71.00 %9.30 °C 
07:00:0014.30 °C1012.50 hPa72.00 %9.30 °C 
06:45:0014.10 °C1012.60 hPa75.00 %9.70 °C 
06:30:0013.40 °C1012.60 hPa79.00 %9.80 °C 
06:15:0011.80 °C1012.70 hPa84.00 %9.20 °C 
06:00:009.80 °C1012.90 hPa85.00 %7.40 °C 
05:45:009.10 °C1012.90 hPa85.00 %6.70 °C 
05:30:008.50 °C1012.90 hPa84.00 %6.00 °C 
05:15:008.60 °C1013.00 hPa84.00 %6.10 °C 
05:00:008.50 °C1013.00 hPa84.00 %6.00 °C 
04:45:008.50 °C1013.00 hPa84.00 %6.00 °C 
04:30:008.60 °C1012.90 hPa84.00 %6.10 °C 
04:15:008.70 °C1012.90 hPa83.00 %6.00 °C 
04:00:008.90 °C1012.90 hPa82.00 %6.00 °C 
03:45:009.30 °C1013.10 hPa82.00 %6.40 °C 
03:30:009.40 °C1013.20 hPa82.00 %6.50 °C 
03:15:009.30 °C1013.40 hPa82.00 %6.40 °C 
03:00:009.30 °C1013.50 hPa82.00 %6.40 °C 
02:45:009.60 °C1013.50 hPa82.00 %6.70 °C 
02:30:009.50 °C1013.60 hPa83.00 %6.80 °C 
02:15:009.30 °C1013.80 hPa83.00 %6.60 °C 
02:00:008.80 °C1013.90 hPa84.00 %6.20 °C 
01:45:008.20 °C1014.10 hPa83.00 %5.50 °C 
01:30:008.20 °C1014.10 hPa83.00 %5.50 °C 
01:15:007.80 °C1014.10 hPa84.00 %5.30 °C 
01:00:007.30 °C1014.00 hPa84.00 %4.80 °C 
00:45:006.80 °C1014.40 hPa83.00 %4.10 °C 
00:30:007.00 °C1014.40 hPa83.00 %4.30 °C 
00:15:006.90 °C1014.50 hPa82.00 %4.00 °C 
00:00:007.00 °C1014.70 hPa82.00 %4.10 °C 

Permanenter Link zu dieser Seite: Wetter im Erzgebirge am 10.05.2016
Performance-Info: Die Erstellung der Seite / Statistik(en) / Tabelle(n) erforderte 5 Datenbankserver-Abfrage(n) und dauerte 102 Millisekunden. (Dieser Messwert ist von der Gesamt-Auslastung des Servers abhängig.)
Erzgebirge - Wetter | Erzgebirge - Wetter (Mobilgeräte) | Komplette Klimadatenbank